AirNav   Air Wisconsin Up To $57,000 Bonus
 
 1466 users online  

37WA Baumann Farm Inc Airport
Washtucna, Washington, USA

GOING TO WASHTUCNA?


FAA INFORMATION EFFECTIVE 02 DECEMBER 2021

Location

FAA Identifier: 37WA
Lat/Long: 46-49-54.5220N 118-27-41.9330W
46-49.908700N 118-27.698883W
46.8318117,-118.4616481
(estimated)
Elevation: 1600 ft. / 488 m (estimated)
Variation: 19E (1985)
From city: 8 miles NW of WASHTUCNA, WA
Time zone: UTC -8 (UTC -7 during Daylight Saving Time)
Zip code: 99371

Airport Operations

Airport use: Private use. Permission required prior to landing
Activation date: 07/1962
Control tower: no
ARTCC: SEATTLE CENTER
FSS: SEATTLE FLIGHT SERVICE STATION
Attendance: UNATNDD
Wind indicator: no
Segmented circle: no

Airport Services

Airframe service: NONE
Powerplant service: NONE

Runway Information

Runway 16/34

Dimensions: 3000 x 50 ft. / 914 x 15 m
Surface: gravel
RUNWAY 16  RUNWAY 34
Traffic pattern: leftleft

Airport Ownership and Management from official FAA records

Ownership: Privately-owned
Owner: DAVID BAUMANN
510 S, BAUER RD
WASHTUCNA, WA 99371
Phone 509-660-0434
Manager: DAVIE BAUMANN
510 S. BAUER RD
WASHTUCNA, WA 99371
Phone 509-660-0434

Additional Remarks

FOR CD CTC SEATTLE ARTCC AT 253-351-3694.

Instrument Procedures

There are no published instrument procedures at 37WA.

Some nearby airports with instrument procedures:

KMWH - Grant County International Airport (42 nm NW)
KPSC - Tri-Cities Airport (44 nm SW)
KALW - Walla Walla Regional Airport (45 nm S)
KRLD - Richland Airport (47 nm SW)
KEPH - Ephrata Municipal Airport (52 nm NW)
 
Loc | Ops | Rwys | IFR | FBO | Links
Com | Nav | Svcs | Stats | Notes
Area around 37WA (Baumann Farm Inc Airport)
 
Road maps at: MapQuest Bing Google
 
Aerial photo
No photo
 
Sectional chart

 
Airport distance calculator
Flying to Baumann Farm Inc Airport? Find the distance to fly.

From to 37WA

Sunrise and sunset
Times for 06-Dec-2021
 Local
(UTC-8)
 Zulu
(UTC)
Morning civil twilight06:5014:50
Sunrise07:2515:25
Sunset16:0500:05
Evening civil twilight16:4000:40

Current date and time
Zulu (UTC)  06-Dec-2021 17:27:12
Local (UTC-8)  06-Dec-2021 09:27:12
 
METAR
KMWH 
41nm NW 
061652Z 00000KT 8SM -SN SCT019 OVC050 00/M04 A3007 RMK AO2 SNB47 SLP197 P0000 T00001044
KPSC 
43nm SW 
061653Z 00000KT 10SM BKN080 OVC095 03/M01 A3009 RMK AO2 SLP192 T00281006
KALW 
45nm S 
061653Z 00000KT 10SM OVC040 03/01 A3005 RMK AO2 RAE24 SLP186 P0000 T00330006
KRLD 
47nm SW 
061715Z AUTO 00000KT 10SM OVC085 03/00 A3010 RMK AO2 T00331002
TAF
KMWH 
41nm NW 
061120Z 0612/0712 04003KT P6SM OVC060 FM061700 10004KT P6SM BKN040 FM062000 08005KT P6SM BKN030 FM070000 01006KT P6SM OVC025 FM071000 35004KT 5SM BR OVC015
KPSC 
43nm SW 
061120Z 0612/0712 VRB03KT P6SM SCT100 OVC150 FM061800 30004KT P6SM OVC050 FM062300 32005KT P6SM OVC035 FM070800 VRB03KT 2SM BR BKN015 OVC025
KALW 
45nm S 
061120Z 0612/0712 21005KT P6SM SCT060 OVC080 TEMPO 0616/0620 5SM -SN OVC030 FM062000 19006KT 4SM -RA BR BKN015 OVC025 FM070000 VRB03KT 2SM BR BKN012 OVC020 FM070900 23004KT 3SM BR BKN007 OVC015
NOTAMs
Click for the latest NOTAMs
NOTAMs are issued by the DoD/FAA and will open in a separate window not controlled by AirNav.

 

 
 

Would you like to see your business listed on this page?

 If your business provides an interesting product or service to pilots, flight crews, aircraft, or users of the Baumann Farm Inc Airport, you should consider listing it here.  To start the listing process, click on the button below
 
Add a business
 

Other Pages about Baumann Farm Inc Airport

Update a link
 
Copyright © AirNav, LLC. All rights reserved. Privacy Policy  Contact